Main page
METAR-TAF:

METAR-TAF

Airports :

Las Vegas, Nevada, United States

McCarran International Airport

latitude: 36-04-44N, longitude: 115-09-19W, elevation: 663 m

Current weather observation

The report was made 33 minutes ago, at 19:56 UTC
Wind 3 kt from variable directions
Temperature 12°C
Humidity 22%
Pressure 1023 hPa
Visibility: 16.1 km
Scattered clouds at a height of 25000 ft

METAR: KLAS 181956Z VRB03KT 10SM SCT250 12/M09 A3021 RMK AO2 SLP227 T01221094

Time: 12:29 (20:29 UTC)

Forecast

The report was made 3 hours and 9 minutes ago, at 17:20 UTC
Forecast valid from 18 at 18 UTC to 19 at 24 UTC
Wind 5 kt from variable directions
Visibility: 10 km
Scattered clouds at a height of 25000 ft
From 19 at 0300 UTC
Wind 6 kt from the South/Southwest
Visibility: 10 km
Scattered clouds at a height of 25000 ft
From 19 at 1700 UTC
Wind 5 kt from variable directions
Visibility: 10 km
Scattered clouds at a height of 25000 ft

TAF: KLAS 181720Z 1818/1924 VRB05KT P6SM SCT250 FM190300 21006KT P6SM SCT250 FM191700 VRB05KT P6SM SCT250

Weather observations and forecasts of more than 4000 airports (METAR and TAF reports).

The available stations are represented by yellow and red dots on the map.

Hover mouse over dot to see the name of the station.

Then click to see weather observations and forecasts.

To change the map : click on the green buttons with a black cross to zoom in, on the green button with a dash to zoom out, or on the green arrows for adjacent maps.


METAR-TAF: